Latest Weather Observations for Creal Reef

IDQ60801

Issued at 7:02 pm EST Thursday 11 February 2016 (issued every 30 minutes, with the page automatically refreshed every 10 minutes)

About weather observations | Map of weather stations | Latest weather observations for QLD | Other Formats
Station Details ID: 200736 Name: CREAL REEF Lat: -20.53 Lon: 150.38 Height: 1.7 m
Data from the previous 72 hours. | See also: Recent months for locations in Queensland
Date/Time
EST
Temp
°C
App
Temp
°C
Dew
Point
Rel
Hum
%
Delta-T
°C
Wind Press
QNH
hPa
Press
MSL
hPa
Rain
since 9 am
mm
Dir
 
Spd
km/h
Gust
km/h
Spd
kts
Gust
kts
11/07:00pm 27.4 - - - - SSE 39 46 21 25 1007.5 - -
11/06:30pm 27.5 - - - - SSE 37 44 20 24 1007.0 - -
11/06:20pm 27.3 - - - - SSE 35 - 19 - - 1006.9 -
11/06:00pm 27.4 - - - - SSE 41 46 22 25 1006.9 - -
11/05:30pm 27.4 - - - - SSE 43 48 23 26 1006.8 - -
11/05:20pm 27.6 - - - - SSE 39 - 21 - - 1006.8 -
11/05:00pm 27.8 - - - - SSE 37 44 20 24 1006.7 - -
11/04:30pm 27.5 - - - - SSE 37 43 20 23 1006.6 - -
11/04:20pm 27.7 - - - - SSE 35 - 19 - - 1006.4 -
11/04:00pm 27.7 - - - - SSE 35 43 19 23 1006.4 - -
11/03:30pm 27.8 - - - - SSE 35 41 19 22 1006.4 - -
11/03:20pm 27.8 - - - - SSE 39 - 21 - - 1006.4 -
11/03:00pm 27.7 - - - - SSE 32 41 17 22 1006.4 - -
11/02:30pm 27.7 - - - - SSE 35 43 19 23 1006.5 - -
11/02:20pm 27.8 - - - - SSE 32 - 17 - - 1006.6 -
11/02:00pm 27.9 - - - - SSE 32 41 17 22 1006.9 - -
11/01:30pm 27.8 - - - - SSE 33 41 18 22 1007.3 - -
11/01:20pm 27.8 - - - - SSE 37 - 20 - - 1007.3 -
11/01:00pm 27.7 - - - - SSE 33 39 18 21 1007.4 - -
11/12:30pm 27.9 - - - - SSE 32 39 17 21 1007.6 - -
11/12:20pm 27.8 - - - - SSE 32 - 17 - - 1007.6 -
11/12:00pm 27.9 - - - - SSE 32 41 17 22 1007.8 - -
11/11:30am 27.5 - - - - SSE 32 39 17 21 1008.1 - -
11/11:20am 27.6 - - - - SSE 28 - 15 - - 1008.3 -
11/11:00am 27.5 - - - - SSE 24 35 13 19 1008.3 - -
11/10:30am 27.6 - - - - SSE 26 33 14 18 1008.6 - -
11/10:20am 27.5 - - - - SSE 33 - 18 - - 1008.5 -
11/10:00am 27.3 - - - - SSE 37 48 20 26 1008.6 - -
11/09:41am 27.5 - - - - SSE 37 43 20 23 1008.6 - -
11/09:30am 27.0 - - - - S 32 43 17 23 1008.6 - -
11/09:20am 27.6 - - - - SSE 30 - 16 - - 1008.5 -
11/09:00am 27.9 - - - - SSE 30 35 16 19 1008.6 - -
11/08:30am 27.6 - - - - SSE 35 43 19 23 1008.3 - -
11/08:20am 27.6 - - - - SSE 33 - 18 - - 1008.2 -
11/08:00am 27.5 - - - - SSE 35 43 19 23 1008.1 - -
11/07:30am 27.5 - - - - SE 35 43 19 23 1007.8 - -
11/07:20am 27.4 - - - - SSE 35 - 19 - - 1007.7 -
11/07:00am 27.3 - - - - SSE 35 41 19 22 1007.6 - -
11/06:30am 27.3 - - - - SE 35 41 19 22 1007.4 - -
11/06:20am 27.3 - - - - SE 35 - 19 - - 1007.3 -
11/06:00am 27.2 - - - - SE 35 39 19 21 1007.2 - -
11/05:30am 27.2 - - - - SE 35 41 19 22 1006.9 - -
11/05:20am 27.2 - - - - SE 37 - 20 - - 1006.7 -
11/05:00am 27.2 - - - - SE 35 43 19 23 1006.7 - -
11/04:30am 27.2 - - - - SE 39 44 21 24 1006.3 - -
11/04:20am 27.4 - - - - SE 39 - 21 - - 1006.3 -
11/04:00am 27.3 - - - - SE 37 44 20 24 1006.2 - -
11/03:30am 27.2 - - - - SE 39 44 21 24 1006.3 - -
11/03:20am 27.2 - - - - SE 37 - 20 - - 1006.2 -
11/03:00am 27.4 - - - - SE 39 50 21 27 1006.4 - -
11/02:30am 27.4 - - - - SE 41 48 22 26 1006.5 - -
11/02:20am 27.4 - - - - SE 41 - 22 - - 1006.6 -
11/02:00am 27.4 - - - - SE 41 48 22 26 1006.8 - -
11/01:30am 27.4 - - - - SE 43 50 23 27 1007.0 - -
11/01:20am 27.4 - - - - SE 43 - 23 - - 1007.0 -
11/01:00am 27.5 - - - - SE 43 50 23 27 1007.0 - -
11/12:30am 27.4 - - - - SE 43 48 23 26 1007.3 - -
11/12:20am 27.4 - - - - SE 41 - 22 - - 1007.3 -
11/12:00am 27.6 - - - - SE 39 48 21 26 1007.6 - -
 
Date/Time
EST
Temp
°C
App
Temp
°C
Dew
Point
Rel
Hum
%
Delta-T
°C
Wind Press
QNH
hPa
Press
MSL
hPa
Rain
since 9 am
mm
Dir
 
Spd
km/h
Gust
km/h
Spd
kts
Gust
kts
10/11:30pm 27.6 - - - - SE 43 50 23 27 1007.9 - -
10/11:20pm 27.5 - - - - SE 43 - 23 - - 1008.1 -
10/11:00pm 27.6 - - - - SE 43 50 23 27 1008.4 - -
10/10:30pm 26.6 - - - - ESE 35 46 19 25 1008.5 - -
10/10:20pm 26.8 - - - - ESE 39 - 21 - - 1008.7 -
10/10:00pm 27.4 - - - - SE 43 50 23 27 1008.8 - -
10/09:30pm 27.6 - - - - SE 39 46 21 25 1008.5 - -
10/09:20pm 27.7 - - - - SE 35 - 19 - - 1008.5 -
10/09:00pm 27.7 - - - - SE 39 46 21 25 1008.5 - -
10/08:30pm 27.5 - - - - SSE 37 50 20 27 1008.5 - -
10/08:20pm 27.7 - - - - SSE 41 - 22 - - 1008.4 -
10/08:00pm 27.8 - - - - SSE 37 46 20 25 1008.3 - -
10/07:30pm 27.6 - - - - SSE 39 48 21 26 1008.0 - -
10/07:20pm 27.8 - - - - SSE 39 - 21 - - 1007.8 -
10/07:00pm 27.7 - - - - SSE 35 50 19 27 1007.8 - -
10/06:30pm 27.7 - - - - SE 41 46 22 25 1007.4 - -
10/06:20pm 27.6 - - - - SE 41 - 22 - - 1007.4 -
10/06:00pm 27.9 - - - - SSE 37 46 20 25 1007.1 - -
10/05:30pm 27.8 - - - - SSE 37 46 20 25 1006.8 - -
10/05:20pm 27.9 - - - - SSE 37 - 20 - - 1006.7 -
10/05:00pm 27.9 - - - - SSE 39 48 21 26 1006.5 - -
10/04:30pm 28.1 - - - - SSE 37 44 20 24 1006.4 - -
10/04:20pm 28.1 - - - - SSE 33 - 18 - - 1006.4 -
10/04:00pm 27.9 - - - - SSE 35 41 19 22 1006.4 - -
10/03:30pm 27.6 - - - - SE 32 39 17 21 1006.4 - -
10/03:20pm 27.5 - - - - SE 30 - 16 - - 1006.5 -
10/03:00pm 27.7 - - - - SE 35 43 19 23 1006.5 - -
10/02:30pm 27.5 - - - - SE 33 39 18 21 1006.6 - -
10/02:20pm 27.4 - - - - SE 35 - 19 - - 1006.7 -
10/02:00pm 27.9 - - - - SSE 35 43 19 23 1006.9 - -
10/01:30pm 27.9 - - - - SSE 39 48 21 26 1007.1 - -
10/01:20pm 28.0 - - - - SSE 37 - 20 - - 1007.1 -
10/01:00pm 28.0 - - - - SSE 33 43 18 23 1007.4 - -
10/12:30pm 27.9 - - - - SSE 32 39 17 21 1007.8 - -
10/12:20pm 26.6 - - - - E 19 - 10 - - 1008.0 -
10/12:00pm 25.9 - - - - ESE 35 43 19 23 1008.3 - -
10/11:30am 26.3 - - - - ESE 37 43 20 23 1008.6 - -
10/11:25am 26.6 - - - - ESE 37 43 20 23 1008.6 - -
10/11:20am 27.9 - - - - SE 37 - 20 - - 1008.5 -
10/11:00am 27.8 - - - - SSE 30 43 16 23 1008.6 - -
10/10:45am 26.9 - - - - SSE 22 33 12 18 1008.7 - -
10/10:30am 26.4 - - - - ESE 39 50 21 27 1008.9 - -
10/10:20am 26.2 - - - - ESE 44 - 24 - - 1008.8 -
10/10:00am 27.8 - - - - SE 37 43 20 23 1008.7 - -
10/09:30am 27.7 - - - - SSE 39 48 21 26 1008.6 - -
10/09:20am 27.8 - - - - SE 39 - 21 - - 1008.6 -
10/09:00am 27.5 - - - - SE 39 46 21 25 1008.3 - -
10/08:30am 27.6 - - - - SE 43 48 23 26 1008.3 - -
10/08:20am 27.6 - - - - SE 43 - 23 - - 1008.2 -
10/08:00am 27.6 - - - - SSE 41 48 22 26 1007.9 - -
10/07:30am 27.4 - - - - SSE 39 46 21 25 1007.7 - -
10/07:20am 27.4 - - - - SSE 37 - 20 - - 1007.6 -
10/07:00am 27.2 - - - - SSE 41 52 22 28 1007.5 - -
10/06:30am 27.2 - - - - SE 43 50 23 27 1007.4 - -
10/06:20am 27.1 - - - - SE 43 - 23 - - 1007.3 -
10/06:00am 27.0 - - - - SE 43 50 23 27 1007.3 - -
10/05:30am 27.1 - - - - SSE 44 52 24 28 1007.0 - -
10/05:20am 27.3 - - - - SE 46 - 25 - - 1006.9 -
10/05:00am 27.5 - - - - SE 48 54 26 29 1006.6 - -
10/04:30am 27.4 - - - - SE 46 54 25 29 1006.2 - -
10/04:20am 27.3 - - - - SE 44 - 24 - - 1006.1 -
10/04:00am 27.6 - - - - SE 50 57 27 31 1006.0 - -
10/03:30am 27.5 - - - - SE 48 56 26 30 1006.1 - -
10/03:20am 27.6 - - - - SE 48 - 26 - - 1006.2 -
10/03:00am 27.5 - - - - SE 46 54 25 29 1006.3 - -
10/02:30am 27.4 - - - - SE 48 56 26 30 1006.5 - -
10/02:20am 27.4 - - - - SE 48 - 26 - - 1006.6 -
10/02:00am 27.4 - - - - SSE 44 56 24 30 1006.7 - -
10/01:30am 27.5 - - - - SE 46 56 25 30 1006.9 - -
10/01:20am 27.6 - - - - SE 48 - 26 - - 1007.2 -
10/01:00am 27.6 - - - - SE 46 54 25 29 1007.3 - -
10/12:30am 27.5 - - - - SE 48 56 26 30 1007.9 - -
10/12:20am 27.5 - - - - SE 46 - 25 - - 1007.9 -
10/12:00am 27.7 - - - - SE 48 56 26 30 1008.3 - -
 
Date/Time
EST
Temp
°C
App
Temp
°C
Dew
Point
Rel
Hum
%
Delta-T
°C
Wind Press
QNH
hPa
Press
MSL
hPa
Rain
since 9 am
mm
Dir
 
Spd
km/h
Gust
km/h
Spd
kts
Gust
kts
09/11:30pm 27.7 - - - - SE 50 57 27 31 1008.7 - -
09/11:20pm 27.7 - - - - SE 50 - 27 - - 1008.7 -
09/11:00pm 27.7 - - - - SE 50 57 27 31 1008.9 - -
09/10:38pm 27.1 - - - - SSE 43 61 23 33 1009.1 - -
09/10:30pm 26.7 - - - - SSE 50 63 27 34 1009.1 - -
09/10:20pm 26.2 - - - - SSE 46 - 25 - - 1009.3 -
09/10:15pm 27.0 - - - - SSE 43 61 23 33 1009.3 - -
09/10:00pm 26.8 - - - - SSE 48 59 26 32 1009.3 - -
09/09:39pm 26.3 - - - - SSE 43 61 23 33 1009.5 - -
09/09:30pm 27.9 - - - - SE 48 54 26 29 1009.5 - -
09/09:20pm 27.9 - - - - SE 48 - 26 - - 1009.3 -
09/09:00pm 27.8 - - - - SE 52 59 28 32 1009.1 - -
09/08:30pm 27.8 - - - - SE 50 57 27 31 1009.3 - -
09/08:20pm 27.9 - - - - SE 50 - 27 - - 1009.1 -
09/08:00pm 28.0 - - - - SE 48 57 26 31 1009.3 - -
09/07:30pm 28.0 - - - - SE 50 59 27 32 1009.1 - -
09/07:20pm 28.0 - - - - SE 50 - 27 - - 1008.9 -
09/07:00pm 28.0 - - - - SE 48 57 26 31 1009.0 - -
09/06:30pm 27.9 - - - - SE 48 56 26 30 1008.6 - -
09/06:20pm 28.0 - - - - SE 48 - 26 - - 1008.5 -
09/06:00pm 28.0 - - - - SE 50 57 27 31 1008.2 - -
09/05:30pm 28.0 - - - - SE 50 59 27 32 1007.9 - -
09/05:20pm 28.0 - - - - SE 48 - 26 - - 1007.9 -
09/05:00pm 28.1 - - - - SE 48 57 26 31 1007.8 - -
09/04:30pm 28.1 - - - - SE 48 56 26 30 1007.5 - -
09/04:20pm 28.1 - - - - SE 52 - 28 - - 1007.3 -
09/04:00pm 28.2 - - - - SE 48 56 26 30 1007.3 - -
09/03:30pm 28.1 - - - - SE 44 54 24 29 1007.3 - -
09/03:20pm 28.0 - - - - SE 48 - 26 - - 1007.3 -
09/03:00pm 28.0 - - - - SE 48 57 26 31 1007.3 - -
09/02:30pm 28.1 - - - - SSE 43 54 23 29 1007.5 - -
09/02:20pm 27.9 - - - - SSE 44 - 24 - - 1007.6 -
09/02:00pm 28.0 - - - - SE 48 56 26 30 1007.9 - -
09/01:30pm 28.0 - - - - SE 44 54 24 29 1008.1 - -
09/01:20pm 27.9 - - - - SE 43 - 23 - - 1008.3 -
09/01:00pm 27.9 - - - - SSE 43 50 23 27 1008.5 - -
09/12:30pm 27.9 - - - - SSE 43 50 23 27 1008.7 - -
09/12:20pm 27.9 - - - - SE 44 - 24 - - 1008.7 -
09/12:00pm 27.9 - - - - SE 41 48 22 26 1008.9 - -
09/11:30am 27.9 - - - - SE 39 48 21 26 1009.1 - -
09/11:20am 27.9 - - - - SE 39 - 21 - - 1009.2 -
09/11:00am 27.8 - - - - SSE 41 48 22 26 1009.3 - -
09/10:30am 27.9 - - - - SSE 33 43 18 23 1009.8 - -
09/10:20am 27.8 - - - - SSE 35 - 19 - - 1009.8 -
09/10:00am 27.9 - - - - SE 39 44 21 24 1009.9 - -
09/09:30am 27.8 - - - - SE 43 48 23 26 1010.0 - -
09/09:20am 27.7 - - - - SSE 37 - 20 - - 1009.8 -
09/09:00am 27.7 - - - - SSE 43 52 23 28 1009.9 - -
09/08:30am 27.8 - - - - SE 46 52 25 28 1009.7 - -
09/08:20am 27.8 - - - - SE 44 - 24 - - 1009.5 -
09/08:00am 27.7 - - - - SE 44 54 24 29 1009.5 - -
09/07:30am 27.7 - - - - SE 46 52 25 28 1009.1 - -
09/07:20am 27.8 - - - - SE 44 - 24 - - 1009.0 -
09/07:00am 27.7 - - - - SE 43 52 23 28 1008.8 - -
09/06:30am 27.6 - - - - SE 48 54 26 29 1008.3 - -
09/06:20am 27.6 - - - - SE 50 - 27 - - 1008.2 -
09/06:00am 27.5 - - - - SE 50 56 27 30 1008.0 - -
09/05:30am 27.4 - - - - SE 50 57 27 31 1007.8 - -
09/05:20am 27.4 - - - - SE 50 - 27 - - 1007.7 -
09/05:00am 27.5 - - - - SE 50 57 27 31 1007.6 - -
09/04:30am 27.5 - - - - SE 50 57 27 31 1007.4 - -
09/04:20am 27.3 - - - - SE 50 - 27 - - 1007.3 -
09/04:00am 27.0 - - - - SE 48 57 26 31 1007.3 - -
09/03:30am 27.1 - - - - SSE 48 57 26 31 1007.2 - -
09/03:20am 27.0 - - - - SSE 43 - 23 - - 1007.3 -
09/03:00am 26.3 - - - - SE 44 54 24 29 1007.5 - -
09/02:30am 27.6 - - - - SSE 41 54 22 29 1007.5 - -
09/02:20am 27.5 - - - - SSE 43 - 23 - - 1007.6 -
09/02:00am 27.5 - - - - SSE 44 56 24 30 1007.7 - -
09/01:30am 27.5 - - - - SSE 48 57 26 31 1008.0 - -
09/01:20am 27.4 - - - - SSE 48 - 26 - - 1008.0 -
09/01:00am 27.5 - - - - SSE 52 61 28 33 1008.3 - -
09/12:30am 27.6 - - - - SE 48 59 26 32 1008.7 - -
09/12:20am 27.6 - - - - SE 54 - 29 - - 1008.7 -
09/12:00am 27.2 - - - - SSE 50 61 27 33 1008.9 - -
 
Date/Time
EST
Temp
°C
App
Temp
°C
Dew
Point
Rel
Hum
%
Delta-T
°C
Wind Press
QNH
hPa
Press
MSL
hPa
Rain
since 9 am
mm
Dir
 
Spd
km/h
Gust
km/h
Spd
kts
Gust
kts
08/11:30pm 26.7 - - - - SSE 48 63 26 34 1009.6 - -
08/11:20pm 26.9 - - - - SSE 46 - 25 - - 1009.5 -
08/11:00pm 27.1 - - - - SE 50 59 27 32 1009.6 - -
08/10:30pm 27.7 - - - - SE 54 63 29 34 1009.6 - -
08/10:20pm 27.6 - - - - SE 54 - 29 - - 1009.4 -
08/10:00pm 27.8 - - - - SSE 50 63 27 34 1009.5 - -
08/09:30pm 27.8 - - - - SE 52 61 28 33 1009.7 - -
08/09:20pm 27.7 - - - - SE 54 - 29 - - 1009.5 -
08/09:00pm 27.3 - - - - SE 46 59 25 32 1009.3 - -
08/08:54pm 27.0 - - - - SE 41 59 22 32 1009.3 - -
08/08:30pm 26.3 - - - - SE 44 57 24 31 1009.5 - -
08/08:26pm 25.9 - - - - SSE 46 57 25 31 1009.5 - -
08/08:20pm 25.9 - - - - SSE 41 - 22 - - 1009.4 -
08/08:00pm 25.4 - - - - S 46 54 25 29 1009.3 - -
08/07:30pm 26.1 - - - - SSE 39 48 21 26 1008.9 - -
08/07:20pm 26.1 - - - - SSE 37 - 20 - - 1008.9 -

Other Formats:

Comma delimited format used in spreadsheet applications
http://www.bom.gov.au/fwo/IDQ60801/IDQ60801.94371.axf

JavaScript Object Notation format (JSON) in row-major order
http://www.bom.gov.au/fwo/IDQ60801/IDQ60801.94371.json